sensor_id;sensor_type;location;lat;lon;timestamp;P1;durP1;ratioP1;P2;durP2;ratioP2
71164;SDS011;58859;55.132;-1.586;2023-04-09T00:00:39;14.97;;;6.70;;
71164;SDS011;58859;55.132;-1.586;2023-04-09T00:03:05;11.60;;;5.95;;
71164;SDS011;58859;55.132;-1.586;2023-04-09T00:05:30;12.80;;;6.27;;
71164;SDS011;58859;55.132;-1.586;2023-04-09T00:07:56;14.27;;;5.93;;
71164;SDS011;58859;55.132;-1.586;2023-04-09T00:10:21;12.32;;;6.10;;
71164;SDS011;58859;55.132;-1.586;2023-04-09T00:12:47;12.88;;;5.63;;
71164;SDS011;58859;55.132;-1.586;2023-04-09T00:15:12;17.73;;;6.30;;
71164;SDS011;58859;55.132;-1.586;2023-04-09T00:17:38;12.10;;;6.07;;
71164;SDS011;58859;55.132;-1.586;2023-04-09T00:20:03;11.45;;;5.70;;
71164;SDS011;58859;55.132;-1.586;2023-04-09T00:22:29;12.23;;;5.87;;
71164;SDS011;58859;55.132;-1.586;2023-04-09T00:24:55;12.65;;;4.95;;
71164;SDS011;58859;55.132;-1.586;2023-04-09T00:27:21;13.03;;;7.03;;
71164;SDS011;58859;55.132;-1.586;2023-04-09T00:29:47;10.13;;;5.50;;
71164;SDS011;58859;55.132;-1.586;2023-04-09T00:32:12;15.97;;;6.30;;
71164;SDS011;58859;55.132;-1.586;2023-04-09T00:34:37;14.43;;;5.47;;
71164;SDS011;58859;55.132;-1.586;2023-04-09T00:37:03;11.55;;;6.50;;
71164;SDS011;58859;55.132;-1.586;2023-04-09T00:39:29;15.90;;;5.47;;
71164;SDS011;58859;55.132;-1.586;2023-04-09T00:41:58;10.35;;;6.05;;
71164;SDS011;58859;55.132;-1.586;2023-04-09T00:44:26;12.87;;;5.33;;
71164;SDS011;58859;55.132;-1.586;2023-04-09T00:46:51;14.48;;;6.30;;
71164;SDS011;58859;55.132;-1.586;2023-04-09T00:49:18;12.87;;;6.40;;
71164;SDS011;58859;55.132;-1.586;2023-04-09T00:51:44;12.10;;;5.47;;
71164;SDS011;58859;55.132;-1.586;2023-04-09T00:54:10;11.57;;;5.93;;
71164;SDS011;58859;55.132;-1.586;2023-04-09T00:56:36;10.70;;;6.13;;
71164;SDS011;58859;55.132;-1.586;2023-04-09T00:59:02;14.70;;;6.15;;
71164;SDS011;58859;55.132;-1.586;2023-04-09T01:01:28;8.82;;;5.90;;
71164;SDS011;58859;55.132;-1.586;2023-04-09T01:03:53;10.10;;;6.23;;
71164;SDS011;58859;55.132;-1.586;2023-04-09T01:09:14;11.82;;;6.30;;
71164;SDS011;58859;55.132;-1.586;2023-04-09T01:17:38;12.80;;;7.23;;
71164;SDS011;58859;55.132;-1.586;2023-04-09T01:22:45;11.15;;;7.05;;
71164;SDS011;58859;55.132;-1.586;2023-04-09T01:25:36;14.60;;;7.32;;
71164;SDS011;58859;55.132;-1.586;2023-04-09T01:30:59;17.67;;;8.15;;
71164;SDS011;58859;55.132;-1.586;2023-04-09T01:33:41;13.70;;;8.20;;
71164;SDS011;58859;55.132;-1.586;2023-04-09T01:36:07;13.40;;;7.57;;
71164;SDS011;58859;55.132;-1.586;2023-04-09T01:38:38;16.83;;;8.93;;
71164;SDS011;58859;55.132;-1.586;2023-04-09T01:41:05;12.80;;;8.07;;
71164;SDS011;58859;55.132;-1.586;2023-04-09T01:43:32;16.58;;;9.52;;
71164;SDS011;58859;55.132;-1.586;2023-04-09T01:45:59;15.18;;;9.13;;
71164;SDS011;58859;55.132;-1.586;2023-04-09T01:48:26;16.53;;;7.87;;
71164;SDS011;58859;55.132;-1.586;2023-04-09T01:50:53;15.18;;;8.18;;
71164;SDS011;58859;55.132;-1.586;2023-04-09T01:53:20;15.77;;;9.02;;
71164;SDS011;58859;55.132;-1.586;2023-04-09T01:55:46;14.43;;;8.88;;
71164;SDS011;58859;55.132;-1.586;2023-04-09T01:58:12;15.57;;;8.77;;
71164;SDS011;58859;55.132;-1.586;2023-04-09T02:00:38;12.45;;;8.50;;
71164;SDS011;58859;55.132;-1.586;2023-04-09T02:03:10;14.70;;;8.23;;
71164;SDS011;58859;55.132;-1.586;2023-04-09T02:05:40;16.40;;;8.13;;
71164;SDS011;58859;55.132;-1.586;2023-04-09T02:08:11;14.05;;;8.18;;
71164;SDS011;58859;55.132;-1.586;2023-04-09T02:10:40;14.10;;;8.13;;
71164;SDS011;58859;55.132;-1.586;2023-04-09T02:13:10;14.90;;;8.85;;
71164;SDS011;58859;55.132;-1.586;2023-04-09T02:15:40;12.18;;;7.55;;
71164;SDS011;58859;55.132;-1.586;2023-04-09T02:18:19;13.67;;;8.33;;
71164;SDS011;58859;55.132;-1.586;2023-04-09T02:20:48;13.18;;;8.13;;
71164;SDS011;58859;55.132;-1.586;2023-04-09T02:23:14;15.38;;;8.32;;
71164;SDS011;58859;55.132;-1.586;2023-04-09T02:25:42;14.45;;;8.80;;
71164;SDS011;58859;55.132;-1.586;2023-04-09T02:28:08;18.00;;;8.77;;
71164;SDS011;58859;55.132;-1.586;2023-04-09T02:30:33;14.88;;;8.00;;
71164;SDS011;58859;55.132;-1.586;2023-04-09T02:32:58;17.90;;;8.67;;
71164;SDS011;58859;55.132;-1.586;2023-04-09T02:35:24;18.97;;;9.70;;
71164;SDS011;58859;55.132;-1.586;2023-04-09T02:37:49;19.27;;;10.33;;
71164;SDS011;58859;55.132;-1.586;2023-04-09T02:40:15;19.65;;;9.80;;
71164;SDS011;58859;55.132;-1.586;2023-04-09T02:42:40;18.03;;;9.77;;
71164;SDS011;58859;55.132;-1.586;2023-04-09T02:45:06;18.63;;;10.07;;
71164;SDS011;58859;55.132;-1.586;2023-04-09T02:47:31;16.25;;;9.20;;
71164;SDS011;58859;55.132;-1.586;2023-04-09T02:49:57;16.37;;;10.10;;
71164;SDS011;58859;55.132;-1.586;2023-04-09T02:52:22;18.63;;;10.30;;
71164;SDS011;58859;55.132;-1.586;2023-04-09T02:54:49;17.05;;;9.55;;
71164;SDS011;58859;55.132;-1.586;2023-04-09T02:57:14;16.23;;;9.60;;
71164;SDS011;58859;55.132;-1.586;2023-04-09T02:59:40;20.53;;;10.67;;
71164;SDS011;58859;55.132;-1.586;2023-04-09T03:02:05;20.52;;;9.88;;
71164;SDS011;58859;55.132;-1.586;2023-04-09T03:04:30;17.30;;;9.60;;
71164;SDS011;58859;55.132;-1.586;2023-04-09T03:06:56;21.23;;;9.63;;
71164;SDS011;58859;55.132;-1.586;2023-04-09T03:09:21;14.90;;;9.50;;
71164;SDS011;58859;55.132;-1.586;2023-04-09T03:11:47;22.67;;;10.03;;
71164;SDS011;58859;55.132;-1.586;2023-04-09T03:14:12;18.27;;;10.37;;
71164;SDS011;58859;55.132;-1.586;2023-04-09T03:16:37;19.03;;;10.23;;
71164;SDS011;58859;55.132;-1.586;2023-04-09T03:19:03;19.95;;;11.35;;
71164;SDS011;58859;55.132;-1.586;2023-04-09T03:21:28;20.20;;;10.97;;
71164;SDS011;58859;55.132;-1.586;2023-04-09T03:23:53;21.37;;;10.83;;
71164;SDS011;58859;55.132;-1.586;2023-04-09T03:26:19;21.57;;;10.70;;
71164;SDS011;58859;55.132;-1.586;2023-04-09T03:28:44;20.17;;;10.87;;
71164;SDS011;58859;55.132;-1.586;2023-04-09T03:31:10;22.40;;;10.63;;
71164;SDS011;58859;55.132;-1.586;2023-04-09T03:33:35;21.35;;;10.90;;
71164;SDS011;58859;55.132;-1.586;2023-04-09T03:36:01;25.97;;;11.50;;
71164;SDS011;58859;55.132;-1.586;2023-04-09T03:38:26;19.67;;;11.07;;
71164;SDS011;58859;55.132;-1.586;2023-04-09T03:40:52;19.65;;;10.73;;
71164;SDS011;58859;55.132;-1.586;2023-04-09T03:43:17;21.63;;;9.90;;
71164;SDS011;58859;55.132;-1.586;2023-04-09T03:45:42;22.20;;;12.07;;
71164;SDS011;58859;55.132;-1.586;2023-04-09T03:48:08;23.97;;;12.10;;
71164;SDS011;58859;55.132;-1.586;2023-04-09T03:50:39;25.60;;;12.63;;
71164;SDS011;58859;55.132;-1.586;2023-04-09T03:53:06;24.65;;;11.73;;
71164;SDS011;58859;55.132;-1.586;2023-04-09T03:55:31;24.70;;;12.10;;
71164;SDS011;58859;55.132;-1.586;2023-04-09T03:57:57;23.67;;;12.20;;
71164;SDS011;58859;55.132;-1.586;2023-04-09T04:00:22;24.37;;;11.77;;
71164;SDS011;58859;55.132;-1.586;2023-04-09T04:02:48;22.53;;;12.40;;
71164;SDS011;58859;55.132;-1.586;2023-04-09T04:05:13;21.07;;;13.00;;
71164;SDS011;58859;55.132;-1.586;2023-04-09T04:07:38;22.67;;;12.27;;
71164;SDS011;58859;55.132;-1.586;2023-04-09T04:10:05;21.20;;;12.75;;
71164;SDS011;58859;55.132;-1.586;2023-04-09T04:12:31;25.25;;;12.75;;
71164;SDS011;58859;55.132;-1.586;2023-04-09T04:14:56;25.35;;;13.75;;
71164;SDS011;58859;55.132;-1.586;2023-04-09T04:17:22;26.17;;;12.90;;
71164;SDS011;58859;55.132;-1.586;2023-04-09T04:19:47;24.20;;;13.13;;
71164;SDS011;58859;55.132;-1.586;2023-04-09T04:22:13;25.37;;;12.50;;
71164;SDS011;58859;55.132;-1.586;2023-04-09T04:24:38;21.57;;;12.00;;
71164;SDS011;58859;55.132;-1.586;2023-04-09T04:27:03;23.70;;;12.20;;
71164;SDS011;58859;55.132;-1.586;2023-04-09T04:29:29;26.00;;;12.10;;
71164;SDS011;58859;55.132;-1.586;2023-04-09T04:31:54;24.13;;;11.83;;
71164;SDS011;58859;55.132;-1.586;2023-04-09T04:34:20;20.90;;;12.03;;
71164;SDS011;58859;55.132;-1.586;2023-04-09T04:36:45;25.90;;;12.20;;
71164;SDS011;58859;55.132;-1.586;2023-04-09T04:39:10;22.13;;;11.75;;
71164;SDS011;58859;55.132;-1.586;2023-04-09T04:41:36;24.75;;;12.23;;
71164;SDS011;58859;55.132;-1.586;2023-04-09T04:44:01;22.93;;;12.67;;
71164;SDS011;58859;55.132;-1.586;2023-04-09T04:46:27;21.80;;;12.27;;
71164;SDS011;58859;55.132;-1.586;2023-04-09T04:48:52;26.53;;;12.60;;
71164;SDS011;58859;55.132;-1.586;2023-04-09T04:51:17;24.60;;;13.32;;
71164;SDS011;58859;55.132;-1.586;2023-04-09T04:53:43;31.75;;;15.80;;
71164;SDS011;58859;55.132;-1.586;2023-04-09T04:56:12;26.40;;;14.20;;
71164;SDS011;58859;55.132;-1.586;2023-04-09T04:58:40;31.63;;;15.17;;
71164;SDS011;58859;55.132;-1.586;2023-04-09T05:01:06;28.00;;;14.80;;
71164;SDS011;58859;55.132;-1.586;2023-04-09T05:03:32;25.30;;;13.98;;
71164;SDS011;58859;55.132;-1.586;2023-04-09T05:05:58;25.27;;;12.40;;
71164;SDS011;58859;55.132;-1.586;2023-04-09T05:08:23;26.02;;;13.10;;
71164;SDS011;58859;55.132;-1.586;2023-04-09T05:10:48;27.77;;;12.77;;
71164;SDS011;58859;55.132;-1.586;2023-04-09T05:13:15;24.00;;;13.47;;
71164;SDS011;58859;55.132;-1.586;2023-04-09T05:15:40;27.40;;;13.88;;
71164;SDS011;58859;55.132;-1.586;2023-04-09T05:18:06;25.33;;;13.27;;
71164;SDS011;58859;55.132;-1.586;2023-04-09T05:20:32;21.88;;;11.65;;
71164;SDS011;58859;55.132;-1.586;2023-04-09T05:22:58;23.25;;;12.15;;
71164;SDS011;58859;55.132;-1.586;2023-04-09T05:25:24;23.33;;;12.23;;
71164;SDS011;58859;55.132;-1.586;2023-04-09T05:27:49;23.80;;;11.73;;
71164;SDS011;58859;55.132;-1.586;2023-04-09T05:30:15;22.10;;;11.38;;
71164;SDS011;58859;55.132;-1.586;2023-04-09T05:32:40;19.70;;;10.53;;
71164;SDS011;58859;55.132;-1.586;2023-04-09T05:35:06;23.43;;;10.67;;
71164;SDS011;58859;55.132;-1.586;2023-04-09T05:37:31;19.13;;;9.85;;
71164;SDS011;58859;55.132;-1.586;2023-04-09T05:39:57;19.77;;;10.93;;
71164;SDS011;58859;55.132;-1.586;2023-04-09T05:42:22;19.50;;;10.47;;
71164;SDS011;58859;55.132;-1.586;2023-04-09T05:44:48;23.57;;;11.90;;
71164;SDS011;58859;55.132;-1.586;2023-04-09T05:47:13;26.20;;;13.07;;
71164;SDS011;58859;55.132;-1.586;2023-04-09T05:49:38;30.57;;;14.10;;
71164;SDS011;58859;55.132;-1.586;2023-04-09T05:52:04;33.10;;;15.40;;
71164;SDS011;58859;55.132;-1.586;2023-04-09T05:54:29;36.70;;;16.10;;
71164;SDS011;58859;55.132;-1.586;2023-04-09T05:56:55;37.42;;;16.23;;
71164;SDS011;58859;55.132;-1.586;2023-04-09T05:59:21;34.60;;;15.52;;
71164;SDS011;58859;55.132;-1.586;2023-04-09T06:01:46;31.67;;;15.63;;
71164;SDS011;58859;55.132;-1.586;2023-04-09T06:04:12;32.73;;;14.83;;
71164;SDS011;58859;55.132;-1.586;2023-04-09T06:06:37;27.17;;;14.70;;
71164;SDS011;58859;55.132;-1.586;2023-04-09T06:09:03;31.83;;;15.95;;
71164;SDS011;58859;55.132;-1.586;2023-04-09T06:11:28;36.43;;;16.27;;
71164;SDS011;58859;55.132;-1.586;2023-04-09T06:13:54;32.85;;;16.25;;
71164;SDS011;58859;55.132;-1.586;2023-04-09T06:16:20;33.37;;;15.27;;
71164;SDS011;58859;55.132;-1.586;2023-04-09T06:18:45;29.57;;;15.37;;
71164;SDS011;58859;55.132;-1.586;2023-04-09T06:21:13;28.70;;;14.75;;
71164;SDS011;58859;55.132;-1.586;2023-04-09T06:23:39;26.38;;;13.10;;
71164;SDS011;58859;55.132;-1.586;2023-04-09T06:26:05;29.50;;;15.03;;
71164;SDS011;58859;55.132;-1.586;2023-04-09T06:28:30;28.63;;;15.02;;
71164;SDS011;58859;55.132;-1.586;2023-04-09T06:30:56;26.00;;;13.00;;
71164;SDS011;58859;55.132;-1.586;2023-04-09T06:33:22;33.45;;;14.88;;
71164;SDS011;58859;55.132;-1.586;2023-04-09T06:35:48;28.77;;;14.30;;
71164;SDS011;58859;55.132;-1.586;2023-04-09T06:38:14;30.40;;;13.88;;
71164;SDS011;58859;55.132;-1.586;2023-04-09T06:40:40;26.85;;;12.55;;
71164;SDS011;58859;55.132;-1.586;2023-04-09T06:43:05;31.23;;;12.93;;
71164;SDS011;58859;55.132;-1.586;2023-04-09T06:45:31;25.63;;;12.85;;
71164;SDS011;58859;55.132;-1.586;2023-04-09T06:47:57;27.75;;;13.45;;
71164;SDS011;58859;55.132;-1.586;2023-04-09T06:50:23;23.53;;;10.37;;
71164;SDS011;58859;55.132;-1.586;2023-04-09T06:52:49;30.27;;;12.77;;
71164;SDS011;58859;55.132;-1.586;2023-04-09T06:55:15;30.20;;;13.23;;
71164;SDS011;58859;55.132;-1.586;2023-04-09T06:57:40;29.17;;;15.30;;
71164;SDS011;58859;55.132;-1.586;2023-04-09T07:00:06;31.00;;;12.18;;
71164;SDS011;58859;55.132;-1.586;2023-04-09T07:02:32;26.70;;;12.10;;
71164;SDS011;58859;55.132;-1.586;2023-04-09T07:04:58;27.80;;;12.27;;
71164;SDS011;58859;55.132;-1.586;2023-04-09T07:07:23;32.05;;;15.05;;
71164;SDS011;58859;55.132;-1.586;2023-04-09T07:09:49;31.65;;;14.05;;
71164;SDS011;58859;55.132;-1.586;2023-04-09T07:12:24;30.17;;;13.33;;
71164;SDS011;58859;55.132;-1.586;2023-04-09T07:15:00;28.65;;;13.13;;
71164;SDS011;58859;55.132;-1.586;2023-04-09T07:17:27;26.52;;;12.38;;
71164;SDS011;58859;55.132;-1.586;2023-04-09T07:19:52;32.07;;;13.63;;
71164;SDS011;58859;55.132;-1.586;2023-04-09T07:22:19;28.67;;;13.68;;
71164;SDS011;58859;55.132;-1.586;2023-04-09T07:24:47;33.30;;;13.90;;
71164;SDS011;58859;55.132;-1.586;2023-04-09T07:27:23;35.33;;;14.57;;
71164;SDS011;58859;55.132;-1.586;2023-04-09T07:29:50;32.33;;;14.82;;
71164;SDS011;58859;55.132;-1.586;2023-04-09T07:32:15;28.10;;;11.82;;
71164;SDS011;58859;55.132;-1.586;2023-04-09T07:34:44;21.53;;;10.50;;
71164;SDS011;58859;55.132;-1.586;2023-04-09T07:37:09;32.65;;;14.77;;
71164;SDS011;58859;55.132;-1.586;2023-04-09T07:39:36;32.83;;;13.57;;
71164;SDS011;58859;55.132;-1.586;2023-04-09T07:42:02;29.27;;;11.60;;
71164;SDS011;58859;55.132;-1.586;2023-04-09T07:44:28;30.55;;;12.88;;
71164;SDS011;58859;55.132;-1.586;2023-04-09T07:46:54;29.53;;;13.67;;
71164;SDS011;58859;55.132;-1.586;2023-04-09T07:49:19;27.60;;;12.25;;
71164;SDS011;58859;55.132;-1.586;2023-04-09T07:51:46;29.65;;;13.45;;
71164;SDS011;58859;55.132;-1.586;2023-04-09T07:54:11;30.13;;;12.32;;
71164;SDS011;58859;55.132;-1.586;2023-04-09T07:56:36;24.75;;;10.98;;
71164;SDS011;58859;55.132;-1.586;2023-04-09T07:59:02;31.77;;;14.20;;
71164;SDS011;58859;55.132;-1.586;2023-04-09T08:01:27;35.27;;;14.83;;
71164;SDS011;58859;55.132;-1.586;2023-04-09T08:03:53;31.40;;;13.30;;
71164;SDS011;58859;55.132;-1.586;2023-04-09T08:06:18;34.90;;;14.07;;
71164;SDS011;58859;55.132;-1.586;2023-04-09T08:08:43;33.30;;;14.00;;
71164;SDS011;58859;55.132;-1.586;2023-04-09T08:11:09;33.05;;;13.90;;
71164;SDS011;58859;55.132;-1.586;2023-04-09T08:13:35;33.73;;;13.90;;
71164;SDS011;58859;55.132;-1.586;2023-04-09T08:16:00;35.53;;;14.10;;
71164;SDS011;58859;55.132;-1.586;2023-04-09T08:18:28;35.63;;;15.23;;
71164;SDS011;58859;55.132;-1.586;2023-04-09T08:20:54;31.77;;;13.05;;
71164;SDS011;58859;55.132;-1.586;2023-04-09T08:23:20;29.40;;;12.40;;
71164;SDS011;58859;55.132;-1.586;2023-04-09T08:25:46;33.73;;;15.20;;
71164;SDS011;58859;55.132;-1.586;2023-04-09T08:28:11;33.92;;;12.98;;
71164;SDS011;58859;55.132;-1.586;2023-04-09T08:30:37;29.47;;;12.23;;
71164;SDS011;58859;55.132;-1.586;2023-04-09T08:33:02;33.77;;;14.77;;
71164;SDS011;58859;55.132;-1.586;2023-04-09T08:35:30;36.20;;;14.10;;
71164;SDS011;58859;55.132;-1.586;2023-04-09T08:37:56;30.75;;;13.25;;
71164;SDS011;58859;55.132;-1.586;2023-04-09T08:40:22;32.10;;;13.93;;
71164;SDS011;58859;55.132;-1.586;2023-04-09T08:42:50;31.37;;;14.23;;
71164;SDS011;58859;55.132;-1.586;2023-04-09T08:45:20;36.45;;;14.57;;
71164;SDS011;58859;55.132;-1.586;2023-04-09T08:47:46;36.92;;;14.65;;
71164;SDS011;58859;55.132;-1.586;2023-04-09T08:50:13;31.92;;;12.32;;
71164;SDS011;58859;55.132;-1.586;2023-04-09T08:52:38;32.90;;;13.30;;
71164;SDS011;58859;55.132;-1.586;2023-04-09T08:55:04;35.58;;;15.50;;
71164;SDS011;58859;55.132;-1.586;2023-04-09T08:57:36;23.98;;;10.50;;
71164;SDS011;58859;55.132;-1.586;2023-04-09T09:00:05;33.57;;;13.17;;
71164;SDS011;58859;55.132;-1.586;2023-04-09T09:02:32;27.38;;;12.80;;
71164;SDS011;58859;55.132;-1.586;2023-04-09T09:04:57;28.40;;;14.20;;
71164;SDS011;58859;55.132;-1.586;2023-04-09T09:07:29;31.10;;;14.17;;
71164;SDS011;58859;55.132;-1.586;2023-04-09T09:09:59;33.38;;;14.07;;
71164;SDS011;58859;55.132;-1.586;2023-04-09T09:12:34;36.42;;;15.60;;
71164;SDS011;58859;55.132;-1.586;2023-04-09T09:15:04;28.70;;;12.88;;
71164;SDS011;58859;55.132;-1.586;2023-04-09T09:17:57;27.67;;;13.10;;
71164;SDS011;58859;55.132;-1.586;2023-04-09T09:20:24;24.43;;;11.60;;
71164;SDS011;58859;55.132;-1.586;2023-04-09T09:22:54;26.75;;;12.85;;
71164;SDS011;58859;55.132;-1.586;2023-04-09T09:25:20;29.00;;;13.52;;
71164;SDS011;58859;55.132;-1.586;2023-04-09T09:27:49;22.95;;;11.68;;
71164;SDS011;58859;55.132;-1.586;2023-04-09T09:32:51;25.10;;;12.50;;
71164;SDS011;58859;55.132;-1.586;2023-04-09T09:35:17;24.13;;;10.63;;
71164;SDS011;58859;55.132;-1.586;2023-04-09T09:37:43;26.45;;;12.70;;
71164;SDS011;58859;55.132;-1.586;2023-04-09T09:40:09;24.83;;;13.60;;
71164;SDS011;58859;55.132;-1.586;2023-04-09T09:42:35;28.75;;;13.23;;
71164;SDS011;58859;55.132;-1.586;2023-04-09T09:45:00;28.07;;;13.23;;
71164;SDS011;58859;55.132;-1.586;2023-04-09T09:47:41;27.00;;;11.25;;
71164;SDS011;58859;55.132;-1.586;2023-04-09T09:50:08;24.37;;;11.57;;
71164;SDS011;58859;55.132;-1.586;2023-04-09T09:52:33;29.17;;;12.77;;
71164;SDS011;58859;55.132;-1.586;2023-04-09T09:55:01;29.40;;;13.45;;
71164;SDS011;58859;55.132;-1.586;2023-04-09T09:57:30;30.93;;;14.97;;
71164;SDS011;58859;55.132;-1.586;2023-04-09T10:00:00;29.73;;;13.82;;
71164;SDS011;58859;55.132;-1.586;2023-04-09T10:02:28;22.75;;;11.48;;
71164;SDS011;58859;55.132;-1.586;2023-04-09T10:05:02;30.88;;;12.15;;
71164;SDS011;58859;55.132;-1.586;2023-04-09T10:07:30;35.40;;;13.38;;
71164;SDS011;58859;55.132;-1.586;2023-04-09T10:09:55;28.73;;;14.53;;
71164;SDS011;58859;55.132;-1.586;2023-04-09T10:12:23;19.85;;;10.25;;
71164;SDS011;58859;55.132;-1.586;2023-04-09T10:14:50;33.30;;;15.43;;
71164;SDS011;58859;55.132;-1.586;2023-04-09T10:17:19;29.95;;;14.25;;
71164;SDS011;58859;55.132;-1.586;2023-04-09T10:19:53;32.15;;;14.30;;
71164;SDS011;58859;55.132;-1.586;2023-04-09T10:22:25;26.27;;;13.07;;
71164;SDS011;58859;55.132;-1.586;2023-04-09T10:24:52;24.55;;;12.18;;
71164;SDS011;58859;55.132;-1.586;2023-04-09T10:27:19;33.27;;;14.63;;
71164;SDS011;58859;55.132;-1.586;2023-04-09T10:29:48;30.38;;;15.02;;
71164;SDS011;58859;55.132;-1.586;2023-04-09T10:32:19;37.43;;;15.20;;
71164;SDS011;58859;55.132;-1.586;2023-04-09T10:34:47;28.35;;;13.73;;
71164;SDS011;58859;55.132;-1.586;2023-04-09T10:37:15;30.35;;;14.88;;
71164;SDS011;58859;55.132;-1.586;2023-04-09T10:39:45;32.58;;;15.88;;
71164;SDS011;58859;55.132;-1.586;2023-04-09T10:42:13;28.67;;;13.82;;
71164;SDS011;58859;55.132;-1.586;2023-04-09T10:44:42;29.53;;;14.10;;
71164;SDS011;58859;55.132;-1.586;2023-04-09T10:47:08;28.27;;;14.48;;
71164;SDS011;58859;55.132;-1.586;2023-04-09T10:49:35;30.37;;;15.63;;
71164;SDS011;58859;55.132;-1.586;2023-04-09T10:52:05;31.13;;;16.58;;
71164;SDS011;58859;55.132;-1.586;2023-04-09T10:59:30;33.85;;;18.40;;
71164;SDS011;58859;55.132;-1.586;2023-04-09T11:01:56;36.47;;;18.27;;
71164;SDS011;58859;55.132;-1.586;2023-04-09T11:04:22;38.45;;;18.70;;
71164;SDS011;58859;55.132;-1.586;2023-04-09T11:06:57;31.20;;;14.47;;
71164;SDS011;58859;55.132;-1.586;2023-04-09T11:09:24;31.35;;;14.75;;
71164;SDS011;58859;55.132;-1.586;2023-04-09T11:11:51;33.47;;;16.48;;
71164;SDS011;58859;55.132;-1.586;2023-04-09T11:14:20;35.08;;;17.50;;
71164;SDS011;58859;55.132;-1.586;2023-04-09T11:16:46;38.27;;;17.30;;
71164;SDS011;58859;55.132;-1.586;2023-04-09T11:19:11;40.05;;;16.23;;
71164;SDS011;58859;55.132;-1.586;2023-04-09T11:21:40;34.40;;;16.37;;
71164;SDS011;58859;55.132;-1.586;2023-04-09T11:24:10;27.00;;;14.63;;
71164;SDS011;58859;55.132;-1.586;2023-04-09T11:26:36;35.08;;;19.55;;
71164;SDS011;58859;55.132;-1.586;2023-04-09T11:29:05;38.67;;;18.38;;
71164;SDS011;58859;55.132;-1.586;2023-04-09T11:31:35;41.77;;;19.10;;
71164;SDS011;58859;55.132;-1.586;2023-04-09T11:34:01;36.60;;;18.55;;
71164;SDS011;58859;55.132;-1.586;2023-04-09T11:36:27;31.63;;;16.33;;
71164;SDS011;58859;55.132;-1.586;2023-04-09T11:38:53;36.57;;;18.63;;
71164;SDS011;58859;55.132;-1.586;2023-04-09T11:41:32;34.35;;;19.17;;
71164;SDS011;58859;55.132;-1.586;2023-04-09T11:44:03;31.67;;;16.73;;
71164;SDS011;58859;55.132;-1.586;2023-04-09T11:46:31;34.42;;;19.25;;
71164;SDS011;58859;55.132;-1.586;2023-04-09T11:48:57;30.13;;;16.83;;
71164;SDS011;58859;55.132;-1.586;2023-04-09T11:51:23;34.78;;;17.02;;
71164;SDS011;58859;55.132;-1.586;2023-04-09T11:53:50;31.30;;;16.83;;
71164;SDS011;58859;55.132;-1.586;2023-04-09T11:56:15;33.07;;;17.07;;
71164;SDS011;58859;55.132;-1.586;2023-04-09T11:58:44;26.60;;;15.33;;
71164;SDS011;58859;55.132;-1.586;2023-04-09T12:01:11;27.42;;;15.90;;
71164;SDS011;58859;55.132;-1.586;2023-04-09T12:03:37;29.67;;;15.95;;
71164;SDS011;58859;55.132;-1.586;2023-04-09T12:06:04;29.57;;;13.90;;
71164;SDS011;58859;55.132;-1.586;2023-04-09T12:08:30;28.80;;;13.77;;
71164;SDS011;58859;55.132;-1.586;2023-04-09T12:11:11;33.65;;;17.55;;
71164;SDS011;58859;55.132;-1.586;2023-04-09T12:13:39;25.08;;;12.57;;
71164;SDS011;58859;55.132;-1.586;2023-04-09T12:16:08;31.73;;;14.63;;
71164;SDS011;58859;55.132;-1.586;2023-04-09T12:18:35;25.35;;;12.38;;
71164;SDS011;58859;55.132;-1.586;2023-04-09T12:21:02;34.25;;;17.17;;
71164;SDS011;58859;55.132;-1.586;2023-04-09T12:23:27;32.70;;;15.83;;
71164;SDS011;58859;55.132;-1.586;2023-04-09T12:25:55;34.90;;;16.75;;
71164;SDS011;58859;55.132;-1.586;2023-04-09T12:28:23;36.08;;;16.60;;
71164;SDS011;58859;55.132;-1.586;2023-04-09T12:30:49;32.43;;;15.83;;
71164;SDS011;58859;55.132;-1.586;2023-04-09T12:33:15;38.35;;;19.70;;
71164;SDS011;58859;55.132;-1.586;2023-04-09T12:35:40;41.07;;;20.10;;
71164;SDS011;58859;55.132;-1.586;2023-04-09T12:38:06;32.33;;;15.52;;
71164;SDS011;58859;55.132;-1.586;2023-04-09T12:40:31;35.13;;;17.07;;
71164;SDS011;58859;55.132;-1.586;2023-04-09T12:42:57;36.27;;;18.97;;
71164;SDS011;58859;55.132;-1.586;2023-04-09T12:45:22;41.27;;;21.70;;
71164;SDS011;58859;55.132;-1.586;2023-04-09T12:47:48;37.00;;;19.40;;
71164;SDS011;58859;55.132;-1.586;2023-04-09T12:50:13;35.57;;;18.23;;
71164;SDS011;58859;55.132;-1.586;2023-04-09T12:52:40;29.77;;;17.10;;
71164;SDS011;58859;55.132;-1.586;2023-04-09T12:55:06;35.42;;;17.08;;
71164;SDS011;58859;55.132;-1.586;2023-04-09T12:57:31;32.45;;;16.75;;
71164;SDS011;58859;55.132;-1.586;2023-04-09T12:59:57;36.83;;;16.30;;
71164;SDS011;58859;55.132;-1.586;2023-04-09T13:02:23;32.78;;;15.65;;
71164;SDS011;58859;55.132;-1.586;2023-04-09T13:04:49;31.20;;;15.43;;
71164;SDS011;58859;55.132;-1.586;2023-04-09T13:07:15;31.45;;;17.17;;
71164;SDS011;58859;55.132;-1.586;2023-04-09T13:09:42;24.75;;;14.55;;
71164;SDS011;58859;55.132;-1.586;2023-04-09T13:12:08;25.02;;;14.02;;
71164;SDS011;58859;55.132;-1.586;2023-04-09T13:14:35;28.23;;;14.82;;
71164;SDS011;58859;55.132;-1.586;2023-04-09T13:17:01;32.63;;;15.17;;
71164;SDS011;58859;55.132;-1.586;2023-04-09T13:19:26;32.85;;;16.23;;
71164;SDS011;58859;55.132;-1.586;2023-04-09T13:21:52;30.27;;;14.27;;
71164;SDS011;58859;55.132;-1.586;2023-04-09T13:24:17;28.07;;;15.17;;
71164;SDS011;58859;55.132;-1.586;2023-04-09T13:26:42;30.00;;;15.37;;
71164;SDS011;58859;55.132;-1.586;2023-04-09T13:29:08;35.85;;;15.93;;
71164;SDS011;58859;55.132;-1.586;2023-04-09T13:31:34;28.85;;;15.23;;
71164;SDS011;58859;55.132;-1.586;2023-04-09T13:34:01;27.80;;;12.50;;
71164;SDS011;58859;55.132;-1.586;2023-04-09T13:36:27;35.72;;;17.30;;
71164;SDS011;58859;55.132;-1.586;2023-04-09T13:38:53;25.90;;;14.15;;
71164;SDS011;58859;55.132;-1.586;2023-04-09T13:41:19;27.73;;;14.50;;
71164;SDS011;58859;55.132;-1.586;2023-04-09T13:43:45;26.43;;;13.63;;
71164;SDS011;58859;55.132;-1.586;2023-04-09T13:46:10;30.57;;;15.53;;
71164;SDS011;58859;55.132;-1.586;2023-04-09T13:48:36;29.73;;;15.10;;
71164;SDS011;58859;55.132;-1.586;2023-04-09T13:51:01;28.38;;;15.55;;
71164;SDS011;58859;55.132;-1.586;2023-04-09T13:53:27;31.07;;;14.67;;
71164;SDS011;58859;55.132;-1.586;2023-04-09T13:55:52;29.48;;;16.30;;
71164;SDS011;58859;55.132;-1.586;2023-04-09T13:58:18;30.60;;;15.43;;
71164;SDS011;58859;55.132;-1.586;2023-04-09T14:00:46;33.47;;;17.52;;
71164;SDS011;58859;55.132;-1.586;2023-04-09T14:03:12;31.40;;;15.93;;
71164;SDS011;58859;55.132;-1.586;2023-04-09T14:05:38;25.67;;;11.98;;
71164;SDS011;58859;55.132;-1.586;2023-04-09T14:08:03;32.60;;;14.77;;
71164;SDS011;58859;55.132;-1.586;2023-04-09T14:10:29;27.10;;;13.47;;
71164;SDS011;58859;55.132;-1.586;2023-04-09T14:12:54;31.88;;;16.15;;
71164;SDS011;58859;55.132;-1.586;2023-04-09T14:15:20;28.97;;;15.03;;
71164;SDS011;58859;55.132;-1.586;2023-04-09T14:17:46;30.48;;;14.40;;
71164;SDS011;58859;55.132;-1.586;2023-04-09T14:20:11;27.00;;;13.10;;
71164;SDS011;58859;55.132;-1.586;2023-04-09T14:22:36;28.97;;;15.13;;
71164;SDS011;58859;55.132;-1.586;2023-04-09T14:25:02;30.13;;;14.20;;
71164;SDS011;58859;55.132;-1.586;2023-04-09T14:27:27;29.58;;;14.98;;
71164;SDS011;58859;55.132;-1.586;2023-04-09T14:29:53;26.27;;;11.93;;